sensor_id;sensor_type;location;lat;lon;timestamp;P1;durP1;ratioP1;P2;durP2;ratioP2
11344;SDS011;5727;42.600;23.028;2024-02-23T00:01:08;12.83;;;11.07;;
11344;SDS011;5727;42.600;23.028;2024-02-23T00:03:37;13.50;;;10.27;;
11344;SDS011;5727;42.600;23.028;2024-02-23T00:06:04;13.77;;;11.50;;
11344;SDS011;5727;42.600;23.028;2024-02-23T00:08:31;15.27;;;11.93;;
11344;SDS011;5727;42.600;23.028;2024-02-23T00:10:59;15.70;;;11.43;;
11344;SDS011;5727;42.600;23.028;2024-02-23T00:13:26;16.73;;;11.97;;
11344;SDS011;5727;42.600;23.028;2024-02-23T00:15:53;15.27;;;11.70;;
11344;SDS011;5727;42.600;23.028;2024-02-23T00:18:20;13.30;;;11.50;;
11344;SDS011;5727;42.600;23.028;2024-02-23T00:20:47;12.50;;;11.20;;
11344;SDS011;5727;42.600;23.028;2024-02-23T00:23:14;13.43;;;11.00;;
11344;SDS011;5727;42.600;23.028;2024-02-23T00:25:41;14.20;;;11.47;;
11344;SDS011;5727;42.600;23.028;2024-02-23T00:28:09;14.57;;;11.33;;
11344;SDS011;5727;42.600;23.028;2024-02-23T00:30:36;14.00;;;11.77;;
11344;SDS011;5727;42.600;23.028;2024-02-23T00:33:03;15.17;;;11.63;;
11344;SDS011;5727;42.600;23.028;2024-02-23T00:35:30;13.60;;;11.00;;
11344;SDS011;5727;42.600;23.028;2024-02-23T00:37:57;14.53;;;11.37;;
11344;SDS011;5727;42.600;23.028;2024-02-23T00:40:24;15.17;;;11.77;;
11344;SDS011;5727;42.600;23.028;2024-02-23T00:42:51;16.00;;;11.63;;
11344;SDS011;5727;42.600;23.028;2024-02-23T00:45:20;15.90;;;11.83;;
11344;SDS011;5727;42.600;23.028;2024-02-23T00:47:46;16.17;;;12.87;;
11344;SDS011;5727;42.600;23.028;2024-02-23T00:50:14;15.10;;;11.93;;
11344;SDS011;5727;42.600;23.028;2024-02-23T00:52:41;15.63;;;12.17;;
11344;SDS011;5727;42.600;23.028;2024-02-23T00:55:08;13.57;;;11.70;;
11344;SDS011;5727;42.600;23.028;2024-02-23T00:57:35;16.87;;;12.83;;
11344;SDS011;5727;42.600;23.028;2024-02-23T01:00:02;17.03;;;11.60;;
11344;SDS011;5727;42.600;23.028;2024-02-23T01:02:32;17.53;;;13.13;;
11344;SDS011;5727;42.600;23.028;2024-02-23T01:04:59;14.60;;;11.63;;
11344;SDS011;5727;42.600;23.028;2024-02-23T01:07:26;16.10;;;12.90;;
11344;SDS011;5727;42.600;23.028;2024-02-23T01:09:53;16.83;;;12.77;;
11344;SDS011;5727;42.600;23.028;2024-02-23T01:12:20;16.50;;;12.90;;
11344;SDS011;5727;42.600;23.028;2024-02-23T01:14:46;15.90;;;13.30;;
11344;SDS011;5727;42.600;23.028;2024-02-23T01:17:14;14.57;;;12.47;;
11344;SDS011;5727;42.600;23.028;2024-02-23T01:19:43;16.67;;;12.43;;
11344;SDS011;5727;42.600;23.028;2024-02-23T01:22:10;16.87;;;12.97;;
11344;SDS011;5727;42.600;23.028;2024-02-23T01:24:37;15.93;;;13.37;;
11344;SDS011;5727;42.600;23.028;2024-02-23T01:27:04;16.77;;;12.63;;
11344;SDS011;5727;42.600;23.028;2024-02-23T01:29:30;14.57;;;12.10;;
11344;SDS011;5727;42.600;23.028;2024-02-23T01:31:58;16.73;;;13.00;;
11344;SDS011;5727;42.600;23.028;2024-02-23T01:34:25;16.83;;;12.60;;
11344;SDS011;5727;42.600;23.028;2024-02-23T01:36:53;14.93;;;12.10;;
11344;SDS011;5727;42.600;23.028;2024-02-23T01:39:20;15.17;;;13.20;;
11344;SDS011;5727;42.600;23.028;2024-02-23T01:41:47;17.17;;;13.10;;
11344;SDS011;5727;42.600;23.028;2024-02-23T01:44:14;16.37;;;13.43;;
11344;SDS011;5727;42.600;23.028;2024-02-23T01:46:42;16.40;;;12.47;;
11344;SDS011;5727;42.600;23.028;2024-02-23T01:49:09;17.47;;;12.90;;
11344;SDS011;5727;42.600;23.028;2024-02-23T01:51:36;14.00;;;11.47;;
11344;SDS011;5727;42.600;23.028;2024-02-23T01:54:05;16.47;;;12.43;;
11344;SDS011;5727;42.600;23.028;2024-02-23T01:56:32;15.07;;;12.43;;
11344;SDS011;5727;42.600;23.028;2024-02-23T01:59:01;15.13;;;12.03;;
11344;SDS011;5727;42.600;23.028;2024-02-23T02:01:29;15.77;;;12.60;;
11344;SDS011;5727;42.600;23.028;2024-02-23T02:03:56;14.30;;;11.63;;
11344;SDS011;5727;42.600;23.028;2024-02-23T02:06:24;14.40;;;12.10;;
11344;SDS011;5727;42.600;23.028;2024-02-23T02:08:51;16.37;;;11.53;;
11344;SDS011;5727;42.600;23.028;2024-02-23T02:11:20;14.13;;;11.23;;
11344;SDS011;5727;42.600;23.028;2024-02-23T02:13:46;14.97;;;12.77;;
11344;SDS011;5727;42.600;23.028;2024-02-23T02:16:13;14.30;;;11.07;;
11344;SDS011;5727;42.600;23.028;2024-02-23T02:18:40;14.50;;;11.07;;
11344;SDS011;5727;42.600;23.028;2024-02-23T02:21:09;13.00;;;11.23;;
11344;SDS011;5727;42.600;23.028;2024-02-23T02:23:36;13.07;;;10.47;;
11344;SDS011;5727;42.600;23.028;2024-02-23T02:26:03;13.63;;;11.20;;
11344;SDS011;5727;42.600;23.028;2024-02-23T02:28:32;14.30;;;11.60;;
11344;SDS011;5727;42.600;23.028;2024-02-23T02:30:59;13.10;;;10.73;;
11344;SDS011;5727;42.600;23.028;2024-02-23T02:33:26;15.20;;;12.03;;
11344;SDS011;5727;42.600;23.028;2024-02-23T02:35:53;15.47;;;12.30;;
11344;SDS011;5727;42.600;23.028;2024-02-23T02:38:20;14.13;;;11.90;;
11344;SDS011;5727;42.600;23.028;2024-02-23T02:40:47;12.83;;;11.33;;
11344;SDS011;5727;42.600;23.028;2024-02-23T02:43:14;12.47;;;11.03;;
11344;SDS011;5727;42.600;23.028;2024-02-23T02:45:43;13.43;;;10.70;;
11344;SDS011;5727;42.600;23.028;2024-02-23T02:48:10;14.50;;;11.23;;
11344;SDS011;5727;42.600;23.028;2024-02-23T02:50:38;13.33;;;10.93;;
11344;SDS011;5727;42.600;23.028;2024-02-23T02:53:05;13.60;;;12.00;;
11344;SDS011;5727;42.600;23.028;2024-02-23T02:55:32;12.60;;;10.53;;
11344;SDS011;5727;42.600;23.028;2024-02-23T02:57:59;12.97;;;11.17;;
11344;SDS011;5727;42.600;23.028;2024-02-23T03:00:26;14.73;;;11.20;;
11344;SDS011;5727;42.600;23.028;2024-02-23T03:02:54;13.23;;;10.67;;
11344;SDS011;5727;42.600;23.028;2024-02-23T03:05:21;13.30;;;10.43;;
11344;SDS011;5727;42.600;23.028;2024-02-23T03:07:48;13.30;;;10.97;;
11344;SDS011;5727;42.600;23.028;2024-02-23T03:10:15;14.80;;;10.90;;
11344;SDS011;5727;42.600;23.028;2024-02-23T03:12:42;15.30;;;11.23;;
11344;SDS011;5727;42.600;23.028;2024-02-23T03:15:09;12.00;;;10.70;;
11344;SDS011;5727;42.600;23.028;2024-02-23T03:17:36;14.40;;;11.07;;
11344;SDS011;5727;42.600;23.028;2024-02-23T03:20:05;13.17;;;11.00;;
11344;SDS011;5727;42.600;23.028;2024-02-23T03:22:36;14.87;;;10.97;;
11344;SDS011;5727;42.600;23.028;2024-02-23T03:25:03;14.20;;;11.47;;
11344;SDS011;5727;42.600;23.028;2024-02-23T03:27:33;15.10;;;11.37;;
11344;SDS011;5727;42.600;23.028;2024-02-23T03:30:02;14.67;;;12.00;;
11344;SDS011;5727;42.600;23.028;2024-02-23T03:32:29;15.63;;;11.43;;
11344;SDS011;5727;42.600;23.028;2024-02-23T03:35:01;14.40;;;10.67;;
11344;SDS011;5727;42.600;23.028;2024-02-23T03:37:30;13.93;;;11.20;;
11344;SDS011;5727;42.600;23.028;2024-02-23T03:39:57;12.97;;;10.50;;
11344;SDS011;5727;42.600;23.028;2024-02-23T03:42:26;14.60;;;11.67;;
11344;SDS011;5727;42.600;23.028;2024-02-23T03:44:52;14.90;;;11.40;;
11344;SDS011;5727;42.600;23.028;2024-02-23T03:47:19;14.33;;;11.90;;
11344;SDS011;5727;42.600;23.028;2024-02-23T03:49:46;13.20;;;11.73;;
11344;SDS011;5727;42.600;23.028;2024-02-23T03:52:13;15.13;;;11.40;;
11344;SDS011;5727;42.600;23.028;2024-02-23T03:54:42;12.40;;;10.80;;
11344;SDS011;5727;42.600;23.028;2024-02-23T03:57:09;13.97;;;11.33;;
11344;SDS011;5727;42.600;23.028;2024-02-23T03:59:36;13.43;;;11.40;;
11344;SDS011;5727;42.600;23.028;2024-02-23T04:02:03;15.10;;;11.60;;
11344;SDS011;5727;42.600;23.028;2024-02-23T04:04:31;15.03;;;11.77;;
11344;SDS011;5727;42.600;23.028;2024-02-23T04:06:58;14.60;;;11.10;;
11344;SDS011;5727;42.600;23.028;2024-02-23T04:09:25;12.87;;;11.57;;
11344;SDS011;5727;42.600;23.028;2024-02-23T04:11:53;11.30;;;9.50;;
11344;SDS011;5727;42.600;23.028;2024-02-23T04:14:20;12.53;;;10.40;;
11344;SDS011;5727;42.600;23.028;2024-02-23T04:16:47;13.30;;;10.80;;
11344;SDS011;5727;42.600;23.028;2024-02-23T04:19:14;15.87;;;12.13;;
11344;SDS011;5727;42.600;23.028;2024-02-23T04:21:41;13.43;;;11.80;;
11344;SDS011;5727;42.600;23.028;2024-02-23T04:24:07;12.40;;;10.67;;
11344;SDS011;5727;42.600;23.028;2024-02-23T04:26:34;12.67;;;10.50;;
11344;SDS011;5727;42.600;23.028;2024-02-23T04:29:03;12.73;;;10.60;;
11344;SDS011;5727;42.600;23.028;2024-02-23T04:31:30;14.03;;;10.43;;
11344;SDS011;5727;42.600;23.028;2024-02-23T04:33:57;12.07;;;10.30;;
11344;SDS011;5727;42.600;23.028;2024-02-23T04:36:24;11.57;;;10.37;;
11344;SDS011;5727;42.600;23.028;2024-02-23T04:38:50;12.23;;;10.07;;
11344;SDS011;5727;42.600;23.028;2024-02-23T04:41:19;11.93;;;9.90;;
11344;SDS011;5727;42.600;23.028;2024-02-23T04:43:47;12.27;;;10.37;;
11344;SDS011;5727;42.600;23.028;2024-02-23T04:46:15;14.57;;;11.13;;
11344;SDS011;5727;42.600;23.028;2024-02-23T04:48:42;15.70;;;11.80;;
11344;SDS011;5727;42.600;23.028;2024-02-23T04:51:10;12.30;;;10.27;;
11344;SDS011;5727;42.600;23.028;2024-02-23T04:53:37;11.17;;;9.97;;
11344;SDS011;5727;42.600;23.028;2024-02-23T04:56:04;15.80;;;11.10;;
11344;SDS011;5727;42.600;23.028;2024-02-23T04:58:31;12.67;;;10.07;;
11344;SDS011;5727;42.600;23.028;2024-02-23T05:00:58;12.43;;;10.20;;
11344;SDS011;5727;42.600;23.028;2024-02-23T05:03:26;13.47;;;11.10;;
11344;SDS011;5727;42.600;23.028;2024-02-23T05:05:53;12.63;;;10.77;;
11344;SDS011;5727;42.600;23.028;2024-02-23T05:08:20;12.57;;;10.80;;
11344;SDS011;5727;42.600;23.028;2024-02-23T05:10:49;13.53;;;11.10;;
11344;SDS011;5727;42.600;23.028;2024-02-23T05:13:16;13.70;;;10.70;;
11344;SDS011;5727;42.600;23.028;2024-02-23T05:15:43;13.80;;;10.43;;
11344;SDS011;5727;42.600;23.028;2024-02-23T05:18:10;12.43;;;10.70;;
11344;SDS011;5727;42.600;23.028;2024-02-23T05:20:38;12.10;;;10.80;;
11344;SDS011;5727;42.600;23.028;2024-02-23T05:23:05;13.83;;;11.50;;
11344;SDS011;5727;42.600;23.028;2024-02-23T05:25:32;13.87;;;10.93;;
11344;SDS011;5727;42.600;23.028;2024-02-23T05:27:59;12.93;;;10.07;;
11344;SDS011;5727;42.600;23.028;2024-02-23T05:30:26;13.00;;;10.70;;
11344;SDS011;5727;42.600;23.028;2024-02-23T05:32:56;11.43;;;9.33;;
11344;SDS011;5727;42.600;23.028;2024-02-23T05:35:23;14.30;;;11.33;;
11344;SDS011;5727;42.600;23.028;2024-02-23T05:37:53;12.90;;;10.23;;
11344;SDS011;5727;42.600;23.028;2024-02-23T05:40:20;11.60;;;10.33;;
11344;SDS011;5727;42.600;23.028;2024-02-23T05:42:47;12.57;;;10.30;;
11344;SDS011;5727;42.600;23.028;2024-02-23T05:45:14;13.63;;;10.77;;
11344;SDS011;5727;42.600;23.028;2024-02-23T05:47:41;13.27;;;10.77;;
11344;SDS011;5727;42.600;23.028;2024-02-23T05:50:08;13.97;;;9.93;;
11344;SDS011;5727;42.600;23.028;2024-02-23T05:52:35;11.90;;;9.77;;
11344;SDS011;5727;42.600;23.028;2024-02-23T05:55:04;11.53;;;9.27;;
11344;SDS011;5727;42.600;23.028;2024-02-23T05:57:31;12.10;;;10.23;;
11344;SDS011;5727;42.600;23.028;2024-02-23T05:59:58;13.27;;;9.77;;
11344;SDS011;5727;42.600;23.028;2024-02-23T06:02:25;16.07;;;11.00;;
11344;SDS011;5727;42.600;23.028;2024-02-23T06:04:52;13.13;;;9.80;;
11344;SDS011;5727;42.600;23.028;2024-02-23T06:07:19;13.53;;;10.93;;
11344;SDS011;5727;42.600;23.028;2024-02-23T06:09:52;12.23;;;10.90;;
11344;SDS011;5727;42.600;23.028;2024-02-23T06:12:20;11.87;;;9.53;;
11344;SDS011;5727;42.600;23.028;2024-02-23T06:14:47;12.47;;;10.43;;
11344;SDS011;5727;42.600;23.028;2024-02-23T06:17:14;13.50;;;10.43;;
11344;SDS011;5727;42.600;23.028;2024-02-23T06:19:41;12.03;;;9.83;;
11344;SDS011;5727;42.600;23.028;2024-02-23T06:22:08;15.40;;;12.63;;
11344;SDS011;5727;42.600;23.028;2024-02-23T06:24:37;12.90;;;9.73;;
11344;SDS011;5727;42.600;23.028;2024-02-23T06:27:04;11.50;;;9.30;;
11344;SDS011;5727;42.600;23.028;2024-02-23T06:29:32;12.33;;;9.20;;
11344;SDS011;5727;42.600;23.028;2024-02-23T06:31:59;14.00;;;10.03;;
11344;SDS011;5727;42.600;23.028;2024-02-23T06:34:28;15.70;;;12.20;;
11344;SDS011;5727;42.600;23.028;2024-02-23T06:36:55;12.60;;;10.27;;
11344;SDS011;5727;42.600;23.028;2024-02-23T06:39:22;12.50;;;9.87;;
11344;SDS011;5727;42.600;23.028;2024-02-23T06:41:49;11.60;;;9.57;;
11344;SDS011;5727;42.600;23.028;2024-02-23T06:44:16;11.63;;;9.30;;
11344;SDS011;5727;42.600;23.028;2024-02-23T06:46:44;12.87;;;9.70;;
11344;SDS011;5727;42.600;23.028;2024-02-23T06:49:11;10.37;;;9.03;;
11344;SDS011;5727;42.600;23.028;2024-02-23T06:51:38;11.07;;;9.37;;
11344;SDS011;5727;42.600;23.028;2024-02-23T06:54:06;13.83;;;11.70;;
11344;SDS011;5727;42.600;23.028;2024-02-23T06:56:33;9.80;;;8.80;;
11344;SDS011;5727;42.600;23.028;2024-02-23T06:59:01;11.13;;;8.07;;
11344;SDS011;5727;42.600;23.028;2024-02-23T07:01:29;10.63;;;8.93;;
11344;SDS011;5727;42.600;23.028;2024-02-23T07:03:57;9.10;;;8.20;;
11344;SDS011;5727;42.600;23.028;2024-02-23T07:06:24;9.37;;;8.33;;
11344;SDS011;5727;42.600;23.028;2024-02-23T07:08:53;10.70;;;8.03;;
11344;SDS011;5727;42.600;23.028;2024-02-23T07:11:21;9.70;;;8.03;;
11344;SDS011;5727;42.600;23.028;2024-02-23T07:13:47;8.87;;;7.87;;
11344;SDS011;5727;42.600;23.028;2024-02-23T07:16:14;8.53;;;7.73;;
11344;SDS011;5727;42.600;23.028;2024-02-23T07:18:41;12.63;;;9.30;;
11344;SDS011;5727;42.600;23.028;2024-02-23T07:21:10;8.73;;;7.33;;
11344;SDS011;5727;42.600;23.028;2024-02-23T07:23:37;12.07;;;7.27;;
11344;SDS011;5727;42.600;23.028;2024-02-23T07:26:04;11.10;;;8.03;;
11344;SDS011;5727;42.600;23.028;2024-02-23T07:28:30;10.13;;;8.83;;
11344;SDS011;5727;42.600;23.028;2024-02-23T07:30:58;9.70;;;7.80;;
11344;SDS011;5727;42.600;23.028;2024-02-23T07:33:25;9.40;;;7.73;;
11344;SDS011;5727;42.600;23.028;2024-02-23T07:35:52;9.80;;;8.00;;
11344;SDS011;5727;42.600;23.028;2024-02-23T07:38:20;10.67;;;9.57;;
11344;SDS011;5727;42.600;23.028;2024-02-23T07:40:47;11.47;;;8.80;;
11344;SDS011;5727;42.600;23.028;2024-02-23T07:43:14;9.23;;;7.13;;
11344;SDS011;5727;42.600;23.028;2024-02-23T07:45:41;17.60;;;13.60;;
11344;SDS011;5727;42.600;23.028;2024-02-23T07:48:08;10.37;;;6.80;;
11344;SDS011;5727;42.600;23.028;2024-02-23T07:50:35;12.40;;;9.53;;
11344;SDS011;5727;42.600;23.028;2024-02-23T07:53:03;14.43;;;12.93;;
11344;SDS011;5727;42.600;23.028;2024-02-23T07:55:31;12.33;;;8.67;;
11344;SDS011;5727;42.600;23.028;2024-02-23T07:57:58;7.23;;;6.43;;
11344;SDS011;5727;42.600;23.028;2024-02-23T08:00:26;6.57;;;5.97;;
11344;SDS011;5727;42.600;23.028;2024-02-23T08:02:53;6.10;;;5.60;;
11344;SDS011;5727;42.600;23.028;2024-02-23T08:05:22;6.13;;;5.40;;
11344;SDS011;5727;42.600;23.028;2024-02-23T08:07:49;6.87;;;6.17;;
11344;SDS011;5727;42.600;23.028;2024-02-23T08:10:16;15.67;;;14.03;;
11344;SDS011;5727;42.600;23.028;2024-02-23T08:12:44;5.90;;;5.30;;
11344;SDS011;5727;42.600;23.028;2024-02-23T08:15:12;5.70;;;5.20;;
11344;SDS011;5727;42.600;23.028;2024-02-23T08:17:39;5.93;;;5.27;;
11344;SDS011;5727;42.600;23.028;2024-02-23T08:20:06;4.50;;;4.10;;
11344;SDS011;5727;42.600;23.028;2024-02-23T08:22:33;5.60;;;5.10;;
11344;SDS011;5727;42.600;23.028;2024-02-23T08:25:00;6.13;;;5.53;;
11344;SDS011;5727;42.600;23.028;2024-02-23T08:27:27;5.70;;;5.20;;
11344;SDS011;5727;42.600;23.028;2024-02-23T08:29:56;5.37;;;4.63;;
11344;SDS011;5727;42.600;23.028;2024-02-23T08:32:23;5.37;;;4.83;;
11344;SDS011;5727;42.600;23.028;2024-02-23T08:34:50;4.73;;;4.23;;
11344;SDS011;5727;42.600;23.028;2024-02-23T08:37:18;5.57;;;4.87;;
11344;SDS011;5727;42.600;23.028;2024-02-23T08:39:45;5.70;;;4.53;;
11344;SDS011;5727;42.600;23.028;2024-02-23T08:42:11;4.40;;;4.00;;
11344;SDS011;5727;42.600;23.028;2024-02-23T08:44:38;5.00;;;4.30;;
11344;SDS011;5727;42.600;23.028;2024-02-23T08:47:07;14.80;;;13.30;;
11344;SDS011;5727;42.600;23.028;2024-02-23T08:49:34;6.40;;;4.90;;
11344;SDS011;5727;42.600;23.028;2024-02-23T08:52:01;5.00;;;4.47;;
11344;SDS011;5727;42.600;23.028;2024-02-23T08:54:29;5.43;;;4.13;;
11344;SDS011;5727;42.600;23.028;2024-02-23T08:56:56;4.00;;;3.70;;
11344;SDS011;5727;42.600;23.028;2024-02-23T08:59:23;5.13;;;4.53;;
11344;SDS011;5727;42.600;23.028;2024-02-23T09:01:50;7.17;;;4.83;;
11344;SDS011;5727;42.600;23.028;2024-02-23T09:04:18;5.87;;;5.30;;
11344;SDS011;5727;42.600;23.028;2024-02-23T09:06:45;4.87;;;4.30;;
11344;SDS011;5727;42.600;23.028;2024-02-23T09:09:14;4.40;;;4.00;;
11344;SDS011;5727;42.600;23.028;2024-02-23T09:11:41;7.53;;;5.50;;
11344;SDS011;5727;42.600;23.028;2024-02-23T09:14:08;6.93;;;6.07;;
11344;SDS011;5727;42.600;23.028;2024-02-23T09:16:35;3.83;;;3.50;;
11344;SDS011;5727;42.600;23.028;2024-02-23T09:19:02;3.90;;;3.40;;
11344;SDS011;5727;42.600;23.028;2024-02-23T09:21:30;4.80;;;4.33;;
11344;SDS011;5727;42.600;23.028;2024-02-23T09:23:58;4.23;;;3.80;;
11344;SDS011;5727;42.600;23.028;2024-02-23T09:26:25;4.17;;;3.40;;
11344;SDS011;5727;42.600;23.028;2024-02-23T09:28:54;4.00;;;3.60;;
11344;SDS011;5727;42.600;23.028;2024-02-23T09:31:21;4.07;;;3.77;;
11344;SDS011;5727;42.600;23.028;2024-02-23T09:33:47;5.07;;;4.03;;
11344;SDS011;5727;42.600;23.028;2024-02-23T09:36:16;3.93;;;3.53;;
11344;SDS011;5727;42.600;23.028;2024-02-23T09:38:44;5.23;;;4.33;;
11344;SDS011;5727;42.600;23.028;2024-02-23T09:41:15;4.43;;;3.70;;
11344;SDS011;5727;42.600;23.028;2024-02-23T09:43:46;4.10;;;3.47;;
11344;SDS011;5727;42.600;23.028;2024-02-23T09:46:14;3.63;;;2.80;;
11344;SDS011;5727;42.600;23.028;2024-02-23T09:48:42;5.00;;;4.50;;
11344;SDS011;5727;42.600;23.028;2024-02-23T09:51:10;7.50;;;4.13;;
11344;SDS011;5727;42.600;23.028;2024-02-23T09:53:38;4.00;;;3.60;;
11344;SDS011;5727;42.600;23.028;2024-02-23T09:56:07;3.37;;;2.90;;
11344;SDS011;5727;42.600;23.028;2024-02-23T09:58:35;3.90;;;3.40;;
11344;SDS011;5727;42.600;23.028;2024-02-23T10:01:03;5.53;;;4.30;;
11344;SDS011;5727;42.600;23.028;2024-02-23T10:03:30;4.37;;;3.97;;
11344;SDS011;5727;42.600;23.028;2024-02-23T10:05:57;4.03;;;3.37;;
11344;SDS011;5727;42.600;23.028;2024-02-23T10:08:26;3.00;;;2.70;;
11344;SDS011;5727;42.600;23.028;2024-02-23T10:10:54;2.90;;;2.70;;
11344;SDS011;5727;42.600;23.028;2024-02-23T10:13:23;4.10;;;3.70;;
11344;SDS011;5727;42.600;23.028;2024-02-23T10:15:50;3.27;;;2.97;;
11344;SDS011;5727;42.600;23.028;2024-02-23T10:18:17;4.07;;;3.63;;
11344;SDS011;5727;42.600;23.028;2024-02-23T10:20:44;4.83;;;4.43;;
11344;SDS011;5727;42.600;23.028;2024-02-23T10:23:11;3.30;;;3.00;;
11344;SDS011;5727;42.600;23.028;2024-02-23T10:25:38;3.77;;;3.00;;
11344;SDS011;5727;42.600;23.028;2024-02-23T10:28:06;3.23;;;2.93;;
11344;SDS011;5727;42.600;23.028;2024-02-23T10:30:36;5.93;;;3.60;;
11344;SDS011;5727;42.600;23.028;2024-02-23T10:33:05;3.37;;;2.97;;
11344;SDS011;5727;42.600;23.028;2024-02-23T10:35:32;3.50;;;3.00;;
11344;SDS011;5727;42.600;23.028;2024-02-23T10:38:05;3.13;;;2.83;;
11344;SDS011;5727;42.600;23.028;2024-02-23T10:40:35;4.43;;;3.30;;
11344;SDS011;5727;42.600;23.028;2024-02-23T10:43:07;5.40;;;3.57;;
11344;SDS011;5727;42.600;23.028;2024-02-23T10:45:40;6.97;;;3.87;;
11344;SDS011;5727;42.600;23.028;2024-02-23T10:48:08;3.40;;;2.97;;
11344;SDS011;5727;42.600;23.028;2024-02-23T10:50:36;4.13;;;2.87;;
11344;SDS011;5727;42.600;23.028;2024-02-23T10:53:04;5.50;;;3.50;;
11344;SDS011;5727;42.600;23.028;2024-02-23T10:55:35;4.80;;;3.57;;
11344;SDS011;5727;42.600;23.028;2024-02-23T10:58:03;3.00;;;2.70;;
11344;SDS011;5727;42.600;23.028;2024-02-23T11:00:36;3.07;;;2.87;;
11344;SDS011;5727;42.600;23.028;2024-02-23T11:03:04;3.20;;;2.90;;
11344;SDS011;5727;42.600;23.028;2024-02-23T11:05:33;2.83;;;2.50;;
11344;SDS011;5727;42.600;23.028;2024-02-23T11:08:00;2.83;;;2.60;;
11344;SDS011;5727;42.600;23.028;2024-02-23T11:10:27;2.93;;;2.63;;
11344;SDS011;5727;42.600;23.028;2024-02-23T11:12:57;4.77;;;2.83;;
11344;SDS011;5727;42.600;23.028;2024-02-23T11:15:28;4.30;;;2.70;;
11344;SDS011;5727;42.600;23.028;2024-02-23T11:17:58;2.67;;;2.47;;
11344;SDS011;5727;42.600;23.028;2024-02-23T11:20:35;3.80;;;2.83;;
11344;SDS011;5727;42.600;23.028;2024-02-23T11:23:12;3.03;;;2.20;;
11344;SDS011;5727;42.600;23.028;2024-02-23T11:25:40;2.30;;;2.10;;
11344;SDS011;5727;42.600;23.028;2024-02-23T11:28:07;2.50;;;2.20;;
11344;SDS011;5727;42.600;23.028;2024-02-23T11:30:34;2.37;;;2.17;;
11344;SDS011;5727;42.600;23.028;2024-02-23T11:33:01;2.70;;;2.50;;
11344;SDS011;5727;42.600;23.028;2024-02-23T11:35:28;3.53;;;2.63;;
11344;SDS011;5727;42.600;23.028;2024-02-23T11:37:57;2.97;;;2.67;;
11344;SDS011;5727;42.600;23.028;2024-02-23T11:40:25;3.77;;;2.53;;
11344;SDS011;5727;42.600;23.028;2024-02-23T11:42:54;2.40;;;2.20;;
11344;SDS011;5727;42.600;23.028;2024-02-23T11:45:21;2.40;;;2.03;;
11344;SDS011;5727;42.600;23.028;2024-02-23T11:47:50;2.23;;;2.03;;
11344;SDS011;5727;42.600;23.028;2024-02-23T11:50:17;2.30;;;2.10;;
11344;SDS011;5727;42.600;23.028;2024-02-23T11:52:45;2.50;;;2.30;;
11344;SDS011;5727;42.600;23.028;2024-02-23T11:55:14;2.87;;;2.27;;
11344;SDS011;5727;42.600;23.028;2024-02-23T11:57:47;2.60;;;2.00;;
11344;SDS011;5727;42.600;23.028;2024-02-23T12:00:14;2.90;;;2.23;;
11344;SDS011;5727;42.600;23.028;2024-02-23T12:02:43;4.70;;;2.50;;
11344;SDS011;5727;42.600;23.028;2024-02-23T12:05:11;2.60;;;2.40;;
11344;SDS011;5727;42.600;23.028;2024-02-23T12:07:38;2.47;;;1.93;;
11344;SDS011;5727;42.600;23.028;2024-02-23T12:10:05;2.07;;;1.87;;
11344;SDS011;5727;42.600;23.028;2024-02-23T12:12:35;3.97;;;2.47;;
11344;SDS011;5727;42.600;23.028;2024-02-23T12:15:02;4.03;;;2.20;;
11344;SDS011;5727;42.600;23.028;2024-02-23T12:17:29;1.83;;;1.63;;
11344;SDS011;5727;42.600;23.028;2024-02-23T12:19:58;3.37;;;2.03;;
11344;SDS011;5727;42.600;23.028;2024-02-23T12:22:25;1.90;;;1.53;;
11344;SDS011;5727;42.600;23.028;2024-02-23T12:24:52;1.40;;;1.30;;
11344;SDS011;5727;42.600;23.028;2024-02-23T12:27:19;3.23;;;1.47;;
11344;SDS011;5727;42.600;23.028;2024-02-23T12:29:52;2.20;;;1.63;;
11344;SDS011;5727;42.600;23.028;2024-02-23T12:32:19;2.13;;;1.33;;
11344;SDS011;5727;42.600;23.028;2024-02-23T12:34:47;4.40;;;1.97;;
11344;SDS011;5727;42.600;23.028;2024-02-23T12:37:15;2.43;;;1.40;;
11344;SDS011;5727;42.600;23.028;2024-02-23T12:39:42;2.03;;;1.50;;
11344;SDS011;5727;42.600;23.028;2024-02-23T12:42:09;2.27;;;1.17;;
11344;SDS011;5727;42.600;23.028;2024-02-23T12:44:36;1.53;;;1.20;;
11344;SDS011;5727;42.600;23.028;2024-02-23T12:47:05;4.00;;;1.57;;
11344;SDS011;5727;42.600;23.028;2024-02-23T12:49:32;1.57;;;1.20;;
11344;SDS011;5727;42.600;23.028;2024-02-23T12:51:59;3.10;;;1.37;;
11344;SDS011;5727;42.600;23.028;2024-02-23T12:54:26;1.60;;;1.20;;
11344;SDS011;5727;42.600;23.028;2024-02-23T12:56:53;1.90;;;1.40;;
11344;SDS011;5727;42.600;23.028;2024-02-23T12:59:22;1.60;;;1.27;;
11344;SDS011;5727;42.600;23.028;2024-02-23T13:01:49;1.33;;;1.13;;
11344;SDS011;5727;42.600;23.028;2024-02-23T13:04:17;1.33;;;1.20;;
11344;SDS011;5727;42.600;23.028;2024-02-23T13:06:44;1.73;;;1.50;;
11344;SDS011;5727;42.600;23.028;2024-02-23T13:09:12;2.87;;;1.47;;
11344;SDS011;5727;42.600;23.028;2024-02-23T13:11:39;2.17;;;1.60;;
11344;SDS011;5727;42.600;23.028;2024-02-23T13:14:06;2.83;;;2.10;;
11344;SDS011;5727;42.600;23.028;2024-02-23T13:16:35;2.03;;;1.70;;
11344;SDS011;5727;42.600;23.028;2024-02-23T13:19:02;4.03;;;1.60;;
11344;SDS011;5727;42.600;23.028;2024-02-23T13:21:30;2.20;;;1.40;;
11344;SDS011;5727;42.600;23.028;2024-02-23T13:23:58;2.17;;;1.17;;
11344;SDS011;5727;42.600;23.028;2024-02-23T13:26:25;1.77;;;1.30;;
11344;SDS011;5727;42.600;23.028;2024-02-23T13:28:52;2.20;;;2.00;;
11344;SDS011;5727;42.600;23.028;2024-02-23T13:31:19;2.50;;;1.90;;
11344;SDS011;5727;42.600;23.028;2024-02-23T13:33:46;1.40;;;1.30;;
11344;SDS011;5727;42.600;23.028;2024-02-23T13:36:13;2.00;;;1.33;;
11344;SDS011;5727;42.600;23.028;2024-02-23T13:38:42;4.10;;;2.10;;
11344;SDS011;5727;42.600;23.028;2024-02-23T13:41:08;2.67;;;1.00;;
11344;SDS011;5727;42.600;23.028;2024-02-23T13:43:36;3.50;;;1.83;;
11344;SDS011;5727;42.600;23.028;2024-02-23T13:46:04;2.40;;;1.80;;
11344;SDS011;5727;42.600;23.028;2024-02-23T13:48:31;2.20;;;1.30;;
11344;SDS011;5727;42.600;23.028;2024-02-23T13:50:58;1.40;;;1.30;;
11344;SDS011;5727;42.600;23.028;2024-02-23T13:53:28;5.30;;;3.40;;
11344;SDS011;5727;42.600;23.028;2024-02-23T13:55:58;1.63;;;1.00;;
11344;SDS011;5727;42.600;23.028;2024-02-23T13:58:26;1.30;;;1.13;;
11344;SDS011;5727;42.600;23.028;2024-02-23T14:00:53;5.93;;;1.60;;
11344;SDS011;5727;42.600;23.028;2024-02-23T14:03:21;2.07;;;1.27;;
11344;SDS011;5727;42.600;23.028;2024-02-23T14:05:48;2.07;;;1.70;;
11344;SDS011;5727;42.600;23.028;2024-02-23T14:08:15;2.13;;;1.20;;
11344;SDS011;5727;42.600;23.028;2024-02-23T14:10:42;3.37;;;2.00;;
11344;SDS011;5727;42.600;23.028;2024-02-23T14:13:10;2.97;;;1.40;;
11344;SDS011;5727;42.600;23.028;2024-02-23T14:15:37;4.20;;;2.33;;
11344;SDS011;5727;42.600;23.028;2024-02-23T14:18:05;1.83;;;1.30;;
11344;SDS011;5727;42.600;23.028;2024-02-23T14:20:32;1.30;;;1.17;;
11344;SDS011;5727;42.600;23.028;2024-02-23T14:22:58;1.67;;;1.27;;
11344;SDS011;5727;42.600;23.028;2024-02-23T14:25:25;3.47;;;1.73;;
11344;SDS011;5727;42.600;23.028;2024-02-23T14:27:52;3.30;;;1.80;;
11344;SDS011;5727;42.600;23.028;2024-02-23T14:30:22;1.83;;;1.63;;
11344;SDS011;5727;42.600;23.028;2024-02-23T14:32:49;2.20;;;1.73;;
11344;SDS011;5727;42.600;23.028;2024-02-23T14:35:16;1.93;;;1.50;;
11344;SDS011;5727;42.600;23.028;2024-02-23T14:37:43;2.50;;;1.57;;